Time;durP1;ratioP1;P1;durP2;ratioP2;P2;SDS_P1;SDS_P2;PMS_P1;PMS_P2;Temp;Humidity;BMP_temperature;BMP_pressure;BME280_temperature;BME280_humidity;BME280_pressure;Samples;Min_cycle;Max_cycle;Signal;HPM_P1;HPM_P2
2023/06/12 00:02:45;;;;;;;0.60;0.60;;;;;;;23.99;34.96;100918.53;5157082;28;20018;-85
2023/06/12 00:05:40;;;;;;;1.20;1.10;;;;;;;24.04;34.92;100915.50;5156340;28;20112;-86
2023/06/12 00:08:34;;;;;;;0.55;0.55;;;;;;;24.09;34.67;100917.81;5156317;28;20030;-85
2023/06/12 00:11:25;;;;;;;0.50;0.50;;;;;;;23.80;35.19;100913.78;5162162;28;20071;-86
2023/06/12 00:14:16;;;;;;;0.52;0.52;;;;;;;23.94;35.07;100914.53;5168347;28;20065;-87
2023/06/12 00:17:07;;;;;;;0.80;0.80;;;;;;;23.67;35.62;100913.91;5169098;28;20015;-87
2023/06/12 00:19:57;;;;;;;0.77;0.77;;;;;;;23.85;35.03;100916.09;5177886;28;20042;-89
2023/06/12 00:22:48;;;;;;;0.38;0.38;;;;;;;23.92;35.00;100916.47;5180781;28;20013;-87
2023/06/12 00:25:39;;;;;;;3.03;0.68;;;;;;;23.97;34.92;100920.50;5196544;28;20176;-85
2023/06/12 00:28:31;;;;;;;0.47;0.47;;;;;;;24.00;34.70;100919.41;5160361;28;20018;-87
2023/06/12 00:31:22;;;;;;;0.40;0.40;;;;;;;24.06;34.68;100921.59;5177602;28;20038;-87
2023/06/12 00:34:12;;;;;;;0.40;0.40;;;;;;;24.07;34.76;100925.09;5159906;28;20584;-86
2023/06/12 00:37:05;;;;;;;0.63;0.50;;;;;;;24.07;34.99;100923.28;5151983;28;20087;-86
2023/06/12 00:39:55;;;;;;;1.08;0.98;;;;;;;24.17;35.04;100926.06;5158907;28;20481;-85
2023/06/12 00:42:48;;;;;;;1.75;1.20;;;;;;;24.18;35.13;100925.09;5160314;28;20026;-86
2023/06/12 00:45:39;;;;;;;0.83;0.83;;;;;;;24.16;35.15;100919.88;5122400;28;20034;-85
2023/06/12 00:48:30;;;;;;;1.52;1.15;;;;;;;24.15;34.91;100911.94;5160931;28;20037;-86
2023/06/12 00:51:23;;;;;;;0.75;0.73;;;;;;;24.04;34.77;100913.69;5167298;28;20035;-86
2023/06/12 00:54:14;;;;;;;0.93;0.63;;;;;;;24.01;35.25;100921.97;5169318;28;20045;-87
2023/06/12 00:57:08;;;;;;;0.60;0.60;;;;;;;23.99;35.08;100917.72;5151220;28;20616;-86
2023/06/12 01:00:01;;;;;;;0.55;0.55;;;;;;;23.97;34.99;100917.81;5134016;28;20026;-86
2023/06/12 01:03:04;;;;;;;0.43;0.43;;;;;;;23.95;35.42;100917.09;5150948;28;20026;-85
2023/06/12 01:05:55;;;;;;;1.10;1.00;;;;;;;23.96;35.18;100913.47;5148570;28;20058;-86
2023/06/12 01:08:57;;;;;;;2.10;1.25;;;;;;;23.92;35.40;100922.66;5176512;28;20053;-86
2023/06/12 01:11:48;;;;;;;2.65;1.30;;;;;;;23.91;35.58;100925.47;5156817;28;20462;-86
2023/06/12 01:14:44;;;;;;;0.35;0.35;;;;;;;23.85;35.33;100916.94;5137353;28;20042;-86
2023/06/12 01:17:35;;;;;;;0.60;0.60;;;;;;;23.84;35.70;100915.22;5149465;28;20033;-86
2023/06/12 01:20:26;;;;;;;0.40;0.40;;;;;;;23.78;35.28;100914.91;5168787;28;20092;-86
2023/06/12 01:23:39;;;;;;;1.10;0.47;;;;;;;23.72;36.01;100913.56;5150625;28;20045;-86
2023/06/12 01:26:53;;;;;;;0.63;0.63;;;;;;;23.70;35.92;100918.19;5153227;28;20038;-85
2023/06/12 01:30:26;;;;;;;0.52;0.47;;;;;;;23.69;36.34;100916.47;5145791;28;20130;-86
2023/06/12 01:33:21;;;;;;;0.70;0.70;;;;;;;23.64;36.31;100913.31;5166727;28;20042;-85
2023/06/12 01:36:19;;;;;;;0.80;0.75;;;;;;;23.63;36.71;100914.28;5166992;28;20698;-86
2023/06/12 01:39:12;;;;;;;0.63;0.63;;;;;;;23.60;37.26;100903.81;5152430;28;20026;-85
2023/06/12 01:42:04;;;;;;;0.40;0.40;;;;;;;23.55;37.15;100906.88;5150196;28;20077;-84
2023/06/12 01:44:58;;;;;;;0.73;0.73;;;;;;;23.53;36.97;100901.63;5136380;28;20084;-86
2023/06/12 01:47:52;;;;;;;0.63;0.47;;;;;;;23.48;36.95;100900.28;5141253;28;20025;-86
2023/06/12 01:50:43;;;;;;;0.38;0.38;;;;;;;23.45;37.42;100897.84;5138283;28;20038;-85
2023/06/12 01:53:35;;;;;;;0.30;0.30;;;;;;;23.41;37.56;100894.56;5170610;28;20062;-86
2023/06/12 01:56:27;;;;;;;1.63;0.77;;;;;;;23.39;37.35;100891.16;5162741;28;20212;-86
2023/06/12 01:59:18;;;;;;;0.50;0.50;;;;;;;23.33;37.49;100888.97;5161940;28;20340;-86
2023/06/12 02:02:08;;;;;;;0.65;0.65;;;;;;;23.27;37.69;100892.97;5167685;28;20026;-85
2023/06/12 02:04:59;;;;;;;1.35;1.00;;;;;;;23.23;38.23;100895.03;5151279;28;20034;-86
2023/06/12 02:07:50;;;;;;;0.70;0.70;;;;;;;23.18;38.18;100896.38;5136662;28;20037;-87
2023/06/12 02:10:40;;;;;;;0.55;0.55;;;;;;;23.13;37.74;100886.00;5153925;28;20026;-85
2023/06/12 02:13:31;;;;;;;0.40;0.40;;;;;;;23.07;38.29;100886.47;5165083;28;20034;-85
2023/06/12 02:16:23;;;;;;;14.43;1.55;;;;;;;23.04;38.43;100889.38;5166170;28;20030;-85
2023/06/12 02:19:14;;;;;;;0.80;0.80;;;;;;;22.99;38.21;100887.06;5149265;28;20030;-86
2023/06/12 02:22:05;;;;;;;0.93;0.88;;;;;;;22.91;38.09;100884.13;5156319;28;20042;-86
2023/06/12 02:24:56;;;;;;;1.02;1.02;;;;;;;22.85;37.94;100888.09;5153003;28;20026;-86
2023/06/12 02:27:47;;;;;;;1.00;0.60;;;;;;;22.83;38.70;100887.41;5149774;28;20223;-86
2023/06/12 02:30:38;;;;;;;0.57;0.57;;;;;;;22.78;38.37;100889.53;5151267;28;20048;-86
2023/06/12 02:33:30;;;;;;;0.30;0.30;;;;;;;22.76;38.93;100896.84;5150847;28;20092;-86
2023/06/12 02:36:21;;;;;;;0.93;0.85;;;;;;;22.74;39.11;100894.28;5153669;28;20049;-86
2023/06/12 02:39:13;;;;;;;0.70;0.70;;;;;;;22.68;39.12;100889.41;5153036;28;20055;-86
2023/06/12 02:42:03;;;;;;;0.68;0.60;;;;;;;22.62;39.11;100890.72;5136348;28;20541;-85
2023/06/12 02:44:54;;;;;;;0.43;0.43;;;;;;;22.58;39.19;100899.94;5153597;28;20030;-85
2023/06/12 02:47:45;;;;;;;0.68;0.68;;;;;;;22.55;39.36;100902.00;5135075;28;20036;-85
2023/06/12 02:50:36;;;;;;;0.47;0.47;;;;;;;22.53;40.08;100902.09;5164621;28;20030;-85
2023/06/12 02:53:26;;;;;;;1.42;0.93;;;;;;;22.45;39.67;100902.69;5153045;28;20053;-85
2023/06/12 02:56:17;;;;;;;0.80;0.80;;;;;;;22.41;39.60;100908.38;5162288;28;20042;-86
2023/06/12 02:59:10;;;;;;;0.95;0.60;;;;;;;22.32;39.87;100905.38;5173304;28;20497;-86
2023/06/12 03:02:01;;;;;;;1.10;0.77;;;;;;;22.27;39.59;100902.19;5171995;28;20065;-86
2023/06/12 03:04:52;;;;;;;0.38;0.38;;;;;;;22.27;40.15;100896.84;5153191;28;20089;-85
2023/06/12 03:07:43;;;;;;;0.60;0.60;;;;;;;22.25;39.99;100898.78;5157495;28;20026;-86
2023/06/12 03:10:35;;;;;;;2.90;1.45;;;;;;;22.19;39.82;100898.38;5166380;28;20042;-85
2023/06/12 03:13:25;;;;;;;0.98;0.90;;;;;;;22.13;40.26;100899.69;5146527;28;20526;-85
2023/06/12 03:16:20;;;;;;;0.32;0.32;;;;;;;22.08;40.24;100896.50;5170358;28;20580;-87
2023/06/12 03:19:11;;;;;;;1.02;0.93;;;;;;;22.04;40.60;100905.69;5150663;28;20036;-85
2023/06/12 03:22:02;;;;;;;1.42;1.33;;;;;;;22.04;40.62;100908.38;5159697;28;20417;-86
2023/06/12 03:24:53;;;;;;;1.48;1.13;;;;;;;21.98;40.76;100907.84;5156962;28;20034;-87
2023/06/12 03:27:47;;;;;;;1.17;1.00;;;;;;;21.92;40.48;100910.97;5152047;28;20025;-85
2023/06/12 03:30:38;;;;;;;1.65;1.35;;;;;;;21.89;40.64;100903.19;5138151;28;20502;-85
2023/06/12 03:33:29;;;;;;;1.77;1.10;;;;;;;21.85;40.93;100907.03;5157188;28;20096;-86
2023/06/12 03:36:21;;;;;;;0.75;0.55;;;;;;;21.82;40.71;100904.59;5138779;28;20045;-85
2023/06/12 03:39:11;;;;;;;0.55;0.55;;;;;;;21.77;40.57;100901.41;5168176;28;20018;-86
2023/06/12 03:42:02;;;;;;;1.20;0.60;;;;;;;21.72;40.63;100907.06;5156332;28;20089;-87
2023/06/12 03:44:53;;;;;;;1.25;1.15;;;;;;;21.70;41.03;100909.81;5150852;28;20587;-84
2023/06/12 03:47:44;;;;;;;0.60;0.57;;;;;;;21.66;41.00;100899.47;5169516;28;20057;-85
2023/06/12 03:50:38;;;;;;;0.57;0.57;;;;;;;21.63;40.56;100905.88;5170874;28;21045;-84
2023/06/12 03:53:29;;;;;;;0.73;0.73;;;;;;;21.58;40.81;100907.16;5168481;28;20056;-84
2023/06/12 03:56:19;;;;;;;0.40;0.40;;;;;;;21.54;41.32;100907.38;5151175;28;20166;-86
2023/06/12 03:59:10;;;;;;;4.07;2.10;;;;;;;21.53;41.34;100907.47;5135963;28;20026;-85
2023/06/12 04:02:02;;;;;;;0.60;0.60;;;;;;;21.51;41.39;100906.75;5153825;28;20120;-90
2023/06/12 04:04:53;;;;;;;0.60;0.60;;;;;;;21.48;41.49;100913.16;5137807;28;20056;-86
2023/06/12 04:07:44;;;;;;;1.65;0.85;;;;;;;21.44;41.83;100914.31;5155885;28;20062;-85
2023/06/12 04:10:35;;;;;;;0.90;0.90;;;;;;;21.39;41.67;100919.97;5177054;28;20038;-85
2023/06/12 04:13:25;;;;;;;1.30;1.20;;;;;;;21.38;42.02;100912.94;5152926;28;20069;-86
2023/06/12 04:16:16;;;;;;;1.02;0.70;;;;;;;21.38;42.27;100917.44;5159561;28;20491;-86
2023/06/12 04:19:08;;;;;;;0.40;0.40;;;;;;;21.36;42.50;100920.19;5152780;28;20030;-87
2023/06/12 04:22:01;;;;;;;0.45;0.45;;;;;;;21.34;42.57;100922.13;5152408;28;20589;-83
2023/06/12 04:24:53;;;;;;;0.50;0.50;;;;;;;21.30;42.66;100917.94;5147122;28;20121;-85
2023/06/12 04:27:44;;;;;;;0.70;0.63;;;;;;;21.31;43.09;100921.47;5165402;28;20163;-83
2023/06/12 04:30:35;;;;;;;0.50;0.50;;;;;;;21.29;42.78;100912.72;5151424;28;20038;-83
2023/06/12 04:33:30;;;;;;;0.57;0.57;;;;;;;21.04;42.81;100915.25;5138358;28;20045;-83
2023/06/12 04:36:22;;;;;;;0.90;0.90;;;;;;;21.02;42.93;100919.00;5169604;28;20038;-83
2023/06/12 04:39:13;;;;;;;0.70;0.70;;;;;;;21.13;42.57;100918.25;5152781;28;20026;-82
2023/06/12 04:42:08;;;;;;;0.55;0.55;;;;;;;21.14;42.49;100925.28;5157241;28;20022;-83
2023/06/12 04:44:59;;;;;;;0.50;0.50;;;;;;;20.99;42.89;100925.41;5158223;28;20148;-83
2023/06/12 04:47:50;;;;;;;1.08;1.00;;;;;;;20.89;43.48;100924.28;5164171;28;20034;-83
2023/06/12 04:50:41;;;;;;;1.30;0.55;;;;;;;20.64;44.29;100925.91;5163922;28;20073;-83
2023/06/12 04:53:32;;;;;;;1.25;1.15;;;;;;;20.80;43.52;100930.25;5170211;28;20081;-83
2023/06/12 04:56:23;;;;;;;0.60;0.60;;;;;;;20.74;43.39;100932.38;5173248;28;20101;-84
2023/06/12 04:59:16;;;;;;;1.02;0.90;;;;;;;20.84;42.45;100924.59;5179420;28;20092;-83
2023/06/12 05:02:08;;;;;;;;;;;;;;;20.94;42.53;100930.19;5154847;28;20029;-83
2023/06/12 05:05:00;;;;;;;11.75;0.85;;;;;;;20.61;44.49;100926.13;5164073;28;19922;-82
2023/06/12 05:07:51;;;;;;;2.23;1.60;;;;;;;20.74;43.46;100931.53;5152880;28;20124;-83
2023/06/12 05:10:42;;;;;;;0.60;0.60;;;;;;;20.84;42.49;100929.09;5151013;28;20274;-83
2023/06/12 05:13:33;;;;;;;0.30;0.30;;;;;;;20.83;43.13;100930.06;5158258;28;20495;-83
2023/06/12 05:16:23;;;;;;;0.57;0.57;;;;;;;20.85;42.57;100930.81;5154864;28;20051;-82
2023/06/12 05:19:14;;;;;;;0.40;0.40;;;;;;;20.88;42.63;100922.59;5151281;28;20461;-83
2023/06/12 05:22:05;;;;;;;0.30;0.30;;;;;;;20.93;42.40;100925.81;5159418;28;20037;-82
2023/06/12 05:24:56;;;;;;;0.88;0.88;;;;;;;20.95;42.04;100931.88;5161701;28;20103;-83
2023/06/12 05:27:46;;;;;;;0.80;0.80;;;;;;;20.83;42.72;100935.38;5159461;28;20037;-83
2023/06/12 05:30:37;;;;;;;0.95;0.82;;;;;;;20.82;43.08;100929.22;5169439;28;20033;-82
2023/06/12 05:33:28;;;;;;;1.20;1.10;;;;;;;20.84;42.55;100929.94;5154402;28;20050;-82
2023/06/12 05:36:19;;;;;;;1.95;1.23;;;;;;;20.96;42.23;100933.59;5155443;28;20034;-82
2023/06/12 05:39:11;;;;;;;0.30;0.30;;;;;;;20.87;42.83;100931.53;5171736;28;20026;-84
2023/06/12 05:42:01;;;;;;;0.63;0.60;;;;;;;20.84;44.61;100937.09;5155985;28;20441;-82
2023/06/12 05:44:52;;;;;;;1.42;1.00;;;;;;;20.93;43.05;100939.16;5151746;28;20037;-83
2023/06/12 05:47:43;;;;;;;1.00;1.00;;;;;;;20.86;43.76;100936.03;5158940;28;20026;-83
2023/06/12 05:50:35;;;;;;;1.23;1.17;;;;;;;20.78;44.21;100942.84;5139142;28;20082;-83
2023/06/12 05:53:26;;;;;;;1.48;1.38;;;;;;;20.82;44.48;100939.88;5156567;28;20069;-83
2023/06/12 05:56:16;;;;;;;0.40;0.40;;;;;;;20.99;43.17;100936.06;5178560;28;20048;-83
2023/06/12 05:59:07;;;;;;;0.95;0.93;;;;;;;20.96;44.27;100940.75;5143242;28;20061;-83
2023/06/12 06:01:58;;;;;;;0.70;0.70;;;;;;;20.94;45.00;100945.31;5147045;28;20026;-83
2023/06/12 06:04:52;;;;;;;1.13;1.13;;;;;;;20.97;44.66;100945.97;5158034;28;20033;-83
2023/06/12 06:07:43;;;;;;;1.02;1.02;;;;;;;21.06;43.73;100948.03;5161262;28;20097;-83
2023/06/12 06:10:34;;;;;;;0.75;0.75;;;;;;;20.97;45.44;100945.97;5157935;28;20056;-83
2023/06/12 06:13:27;;;;;;;0.80;0.80;;;;;;;20.90;46.25;100952.69;5160562;28;20308;-83
2023/06/12 06:16:18;;;;;;;3.15;1.27;;;;;;;20.83;46.50;100952.22;5169698;28;20087;-84
2023/06/12 06:19:09;;;;;;;1.20;1.13;;;;;;;21.12;44.68;100951.22;5160624;28;20022;-82
2023/06/12 06:22:00;;;;;;;0.82;0.82;;;;;;;21.09;45.61;100946.13;5170790;28;20034;-83
2023/06/12 06:24:51;;;;;;;0.95;0.90;;;;;;;21.07;45.48;100949.72;5177484;28;20029;-83
2023/06/12 06:27:42;;;;;;;0.55;0.55;;;;;;;21.19;45.35;100955.19;5181891;28;20046;-83
2023/06/12 06:30:33;;;;;;;2.30;1.52;;;;;;;21.29;44.54;100947.41;5162952;28;20120;-84
2023/06/12 06:33:23;;;;;;;1.05;0.93;;;;;;;21.28;44.50;100946.53;5155703;28;20046;-83
2023/06/12 06:36:14;;;;;;;0.80;0.80;;;;;;;21.37;44.98;100945.06;5153159;28;20034;-83
2023/06/12 06:39:05;;;;;;;0.40;0.40;;;;;;;21.34;45.47;100950.59;5158331;28;20057;-83
2023/06/12 06:41:56;;;;;;;22.30;1.45;;;;;;;21.30;47.25;100949.13;5170673;28;20041;-83
2023/06/12 06:44:49;;;;;;;0.82;0.82;;;;;;;21.42;45.51;100947.41;5157070;28;20564;-83
2023/06/12 06:47:39;;;;;;;0.82;0.82;;;;;;;21.53;45.20;100945.72;5172993;28;20034;-84
2023/06/12 06:50:30;;;;;;;0.47;0.47;;;;;;;21.47;46.77;100955.94;5155092;28;20049;-83
2023/06/12 06:53:21;;;;;;;1.02;0.75;;;;;;;21.55;45.21;100956.28;5171798;28;20042;-82
2023/06/12 06:56:12;;;;;;;0.75;0.75;;;;;;;21.61;45.52;100947.84;5143086;28;20033;-82
2023/06/12 06:59:03;;;;;;;0.40;0.40;;;;;;;21.67;45.03;100944.78;5157840;28;20026;-82
2023/06/12 07:01:54;;;;;;;3.03;1.50;;;;;;;21.76;44.38;100939.75;5155243;28;20019;-83
2023/06/12 07:04:50;;;;;;;0.70;0.70;;;;;;;21.75;45.02;100943.38;5133764;28;20121;-82
2023/06/12 07:07:43;;;;;;;0.73;0.73;;;;;;;21.76;45.25;100945.09;5149118;28;20037;-82
2023/06/12 07:10:34;;;;;;;2.95;1.83;;;;;;;21.77;45.30;100941.47;5153590;28;20049;-82
2023/06/12 07:13:25;;;;;;;0.45;0.45;;;;;;;21.75;45.98;100943.38;5175846;28;20034;-83
2023/06/12 07:16:16;;;;;;;0.95;0.95;;;;;;;21.80;45.54;100944.75;5172424;28;20026;-83
2023/06/12 07:19:09;;;;;;;0.40;0.40;;;;;;;21.96;45.14;100946.34;5165706;28;20064;-83
2023/06/12 07:22:00;;;;;;;0.75;0.60;;;;;;;21.92;46.12;100929.69;5165103;28;20026;-83
2023/06/12 07:24:51;;;;;;;1.00;0.93;;;;;;;22.09;45.12;100938.28;5181946;28;20090;-82
2023/06/12 07:27:42;;;;;;;4.47;0.85;;;;;;;21.96;45.80;100941.84;5166426;28;20438;-83
2023/06/12 07:30:33;;;;;;;0.30;0.30;;;;;;;22.05;45.42;100936.78;5156074;28;20106;-82
2023/06/12 07:33:24;;;;;;;2.85;1.42;;;;;;;22.19;45.07;100938.47;5176661;28;20046;-83
2023/06/12 07:36:15;;;;;;;2.83;1.63;;;;;;;22.18;46.14;100940.31;5142567;28;20526;-82
2023/06/12 07:39:06;;;;;;;1.25;0.73;;;;;;;22.27;45.76;100934.25;5171931;28;20022;-82
2023/06/12 07:41:57;;;;;;;1.45;1.35;;;;;;;22.34;45.35;100929.31;5141392;28;20053;-82
2023/06/12 07:44:47;;;;;;;0.70;0.70;;;;;;;22.41;46.14;100933.28;5138295;28;20500;-82
2023/06/12 07:47:38;;;;;;;2.65;1.85;;;;;;;22.49;45.08;100924.69;5169774;28;20030;-82
2023/06/12 07:50:29;;;;;;;1.23;0.90;;;;;;;22.53;45.26;100923.50;5170746;28;20396;-82
2023/06/12 07:53:20;;;;;;;0.90;0.90;;;;;;;22.61;45.79;100925.59;5137830;28;20049;-83
2023/06/12 07:56:11;;;;;;;0.70;0.70;;;;;;;22.67;45.67;100929.66;5154276;28;20564;-82
2023/06/12 07:59:10;;;;;;;4.53;1.45;;;;;;;22.68;45.22;100923.34;5159571;28;20027;-83
2023/06/12 08:02:02;;;;;;;0.30;0.30;;;;;;;22.78;44.81;100922.50;5171200;28;20118;-83
2023/06/12 08:04:53;;;;;;;0.20;0.20;;;;;;;22.76;44.85;100928.94;5148964;28;20038;-83
2023/06/12 08:07:44;;;;;;;0.85;0.73;;;;;;;22.82;44.83;100927.63;5174056;28;20025;-83
2023/06/12 08:10:35;;;;;;;0.40;0.40;;;;;;;22.85;45.01;100920.22;5152158;28;20724;-83
2023/06/12 08:13:26;;;;;;;0.57;0.57;;;;;;;22.99;44.37;100918.31;5158017;28;20081;-83
2023/06/12 08:16:17;;;;;;;0.38;0.38;;;;;;;23.06;44.06;100908.84;5141741;28;20827;-82
2023/06/12 08:19:07;;;;;;;0.95;0.68;;;;;;;23.05;44.49;100918.72;5158384;28;20029;-83
2023/06/12 08:21:59;;;;;;;0.40;0.40;;;;;;;23.10;44.45;100910.28;5168485;28;20026;-83
2023/06/12 08:24:50;;;;;;;0.35;0.35;;;;;;;23.19;43.98;100909.63;5171021;28;20046;-83
2023/06/12 08:27:41;;;;;;;1.45;1.05;;;;;;;23.25;43.81;100914.53;5160549;28;20038;-83
2023/06/12 08:30:32;;;;;;;1.08;0.93;;;;;;;23.25;44.20;100911.84;5158120;28;20191;-81
2023/06/12 08:33:23;;;;;;;3.72;1.27;;;;;;;23.30;44.55;100910.63;5176386;28;20069;-83
2023/06/12 08:36:14;;;;;;;1.35;1.25;;;;;;;23.49;43.67;100905.53;5137886;28;20560;-83
2023/06/12 08:39:05;;;;;;;1.08;0.75;;;;;;;23.46;43.59;100908.44;5162280;28;20084;-83
2023/06/12 08:42:04;;;;;;;0.43;0.43;;;;;;;23.53;43.40;100909.66;5157859;28;20030;-84
2023/06/12 08:45:05;;;;;;;0.77;0.70;;;;;;;23.65;43.25;100907.81;5172661;28;20038;-83
2023/06/12 08:47:56;;;;;;;0.45;0.45;;;;;;;23.66;43.27;100900.66;5139460;28;20049;-82
2023/06/12 08:50:48;;;;;;;1.13;0.77;;;;;;;23.66;43.17;100900.66;5148300;28;20034;-82
2023/06/12 08:53:39;;;;;;;4.97;1.20;;;;;;;23.73;42.99;100902.72;5153508;28;20041;-83
2023/06/12 08:56:31;;;;;;;0.63;0.63;;;;;;;23.76;43.13;100901.59;5163422;28;20034;-83
2023/06/12 08:59:22;;;;;;;0.25;0.25;;;;;;;23.83;42.72;100902.84;5165481;28;20331;-83
2023/06/12 09:02:16;;;;;;;0.60;0.60;;;;;;;23.88;42.89;100900.63;5160565;28;20034;-83
2023/06/12 09:05:14;;;;;;;0.90;0.60;;;;;;;23.98;43.06;100900.75;5166722;28;20045;-82
2023/06/12 09:08:06;;;;;;;2.20;0.95;;;;;;;24.00;42.74;100895.31;5159094;28;20093;-84
2023/06/12 09:10:58;;;;;;;0.70;0.70;;;;;;;24.05;42.79;100898.44;5152232;28;20030;-83
2023/06/12 09:13:50;;;;;;;0.82;0.45;;;;;;;24.07;43.19;100893.81;5173959;28;20030;-81
2023/06/12 09:16:45;;;;;;;0.50;0.50;;;;;;;24.09;43.17;100891.84;5149037;28;20038;-83
2023/06/12 09:19:37;;;;;;;0.50;0.50;;;;;;;24.20;42.90;100896.34;5159976;28;20034;-83
2023/06/12 09:22:27;;;;;;;0.70;0.70;;;;;;;24.21;43.36;100906.09;5154291;28;20054;-82
2023/06/12 09:25:19;;;;;;;0.52;0.52;;;;;;;24.33;43.12;100896.19;5157320;28;20038;-82
2023/06/12 09:28:10;;;;;;;0.60;0.60;;;;;;;24.40;42.75;100899.19;5172862;28;20030;-82
2023/06/12 09:31:01;;;;;;;0.85;0.68;;;;;;;24.41;42.37;100906.25;5154859;28;20043;-81
2023/06/12 09:33:53;;;;;;;0.70;0.57;;;;;;;24.43;42.09;100898.94;5161383;28;20078;-82
2023/06/12 09:36:43;;;;;;;1.00;0.77;;;;;;;24.60;42.49;100902.88;5128712;28;20804;-83
2023/06/12 09:39:35;;;;;;;0.50;0.50;;;;;;;24.67;42.35;100901.41;5156610;28;20053;-83
2023/06/12 09:42:35;;;;;;;1.20;1.05;;;;;;;24.72;41.54;100904.59;5159180;28;20035;-82
2023/06/12 09:45:25;;;;;;;1.00;0.50;;;;;;;24.75;42.08;100904.31;5150180;28;20121;-84
2023/06/12 09:48:16;;;;;;;2.17;1.20;;;;;;;24.90;43.41;100904.84;5171789;28;20113;-83
2023/06/12 09:51:09;;;;;;;0.30;0.30;;;;;;;24.90;43.19;100901.31;5154071;28;20151;-83
2023/06/12 09:54:02;;;;;;;0.77;0.73;;;;;;;24.99;42.76;100900.53;5164383;28;20022;-85
2023/06/12 09:56:57;;;;;;;1.45;0.63;;;;;;;25.08;42.38;100891.66;5159132;28;20038;-85
2023/06/12 09:59:51;;;;;;;0.65;0.55;;;;;;;25.14;41.84;100901.91;5158174;28;20037;-84
2023/06/12 12:15:27;;;;;;;0.35;0.35;;;;;;;29.02;32.69;100819.72;5154768;28;20046;-82
2023/06/12 12:18:17;;;;;;;0.60;0.60;;;;;;;29.23;32.80;100827.44;5179406;28;20490;-83
2023/06/12 12:21:13;;;;;;;0.20;0.20;;;;;;;29.45;31.43;100825.19;5155418;28;20057;-82
2023/06/12 12:24:04;;;;;;;0.65;0.65;;;;;;;29.27;31.52;100823.38;5169121;28;20015;-80
2023/06/12 12:26:55;;;;;;;0.22;0.22;;;;;;;29.38;32.47;100822.28;5154693;28;20026;-81
2023/06/12 12:29:46;;;;;;;0.57;0.52;;;;;;;29.38;32.48;100824.97;5160842;28;20130;-83
2023/06/12 12:32:37;;;;;;;0.68;0.68;;;;;;;29.38;31.60;100818.75;5169275;28;20026;-81
2023/06/12 12:35:27;;;;;;;0.77;0.77;;;;;;;29.41;31.99;100813.84;5156718;28;20049;-82
2023/06/12 12:38:18;;;;;;;0.30;0.30;;;;;;;29.32;32.02;100815.69;5167711;28;20034;-83
2023/06/12 12:41:09;;;;;;;0.30;0.30;;;;;;;29.34;31.87;100815.53;5149582;28;20104;-84
2023/06/12 12:44:00;;;;;;;0.35;0.35;;;;;;;29.36;32.43;100806.22;5150253;28;20057;-84
2023/06/12 12:46:51;;;;;;;0.63;0.63;;;;;;;29.24;31.89;100806.66;5148554;28;20038;-83
2023/06/12 12:49:41;;;;;;;0.75;0.68;;;;;;;29.30;31.39;100806.88;5166133;28;20580;-83
2023/06/12 12:52:33;;;;;;;0.43;0.43;;;;;;;29.31;31.07;100796.88;5146538;28;20169;-83
2023/06/12 12:55:24;;;;;;;0.65;0.52;;;;;;;29.35;31.06;100801.00;5153659;28;20134;-83
2023/06/12 12:58:15;;;;;;;1.38;0.60;;;;;;;29.45;32.48;100793.63;5147442;28;20057;-84
2023/06/12 13:01:05;;;;;;;0.30;0.30;;;;;;;29.72;30.11;100793.50;5147988;28;20628;-83
2023/06/12 13:03:57;;;;;;;0.32;0.32;;;;;;;29.74;31.02;100792.31;5148289;28;20035;-82
2023/06/12 13:06:49;;;;;;;0.63;0.63;;;;;;;29.86;32.10;100789.31;5143345;28;20026;-83
2023/06/12 13:09:39;;;;;;;0.30;0.30;;;;;;;30.03;32.04;100788.34;5171708;28;20037;-84
2023/06/12 13:12:30;;;;;;;0.40;0.40;;;;;;;30.09;31.46;100787.66;5169925;28;20042;-84
2023/06/12 13:15:21;;;;;;;1.35;0.47;;;;;;;30.27;31.64;100783.97;5181629;28;20133;-83
2023/06/12 13:18:11;;;;;;;0.20;0.20;;;;;;;30.48;31.34;100779.88;5159356;28;20397;-85
2023/06/12 13:21:03;;;;;;;0.85;0.55;;;;;;;30.60;30.65;100783.94;5155589;28;20041;-84
2023/06/12 13:23:53;;;;;;;0.90;0.50;;;;;;;30.58;30.55;100783.28;5164514;28;20037;-84
2023/06/12 13:26:44;;;;;;;0.50;0.50;;;;;;;30.61;29.62;100780.22;5165238;28;20062;-84
2023/06/12 13:29:35;;;;;;;0.70;0.63;;;;;;;30.68;28.02;100773.09;5135006;28;20556;-84
2023/06/12 13:32:26;;;;;;;0.82;0.82;;;;;;;30.91;28.67;100775.06;5157296;28;20506;-84
2023/06/12 13:35:17;;;;;;;0.50;0.50;;;;;;;30.83;29.38;100775.09;5155264;28;20049;-84
2023/06/12 13:38:08;;;;;;;3.92;1.85;;;;;;;30.94;29.56;100763.91;5165717;28;20081;-84
2023/06/12 13:40:58;;;;;;;0.28;0.28;;;;;;;31.19;29.56;100769.25;5150411;28;20035;-84
2023/06/12 13:43:49;;;;;;;0.85;0.85;;;;;;;31.30;29.46;100763.41;5158327;28;20433;-84
2023/06/12 13:46:40;;;;;;;0.40;0.40;;;;;;;31.38;28.60;100759.81;5145381;28;20062;-84
2023/06/12 13:49:32;;;;;;;0.52;0.52;;;;;;;31.61;28.99;100761.72;5162390;28;20031;-84
2023/06/12 13:52:23;;;;;;;1.50;1.15;;;;;;;31.78;28.79;100757.03;5167234;28;20033;-84
2023/06/12 13:55:16;;;;;;;0.35;0.35;;;;;;;31.80;29.33;100758.56;5165310;28;20049;-87
2023/06/12 13:58:07;;;;;;;1.20;1.10;;;;;;;31.81;28.54;100752.13;5164614;28;20110;-85
2023/06/12 14:00:58;;;;;;;2.10;1.35;;;;;;;31.81;28.33;100762.13;5153072;28;20778;-87
2023/06/12 14:03:50;;;;;;;1.38;1.10;;;;;;;32.03;28.90;100755.84;5142190;28;20438;-87
2023/06/12 14:06:41;;;;;;;3.30;0.80;;;;;;;32.11;29.08;100754.94;5148709;28;20050;-87
2023/06/12 14:09:32;;;;;;;0.80;0.80;;;;;;;31.98;27.51;100763.69;5143192;28;20037;-88
2023/06/12 14:12:23;;;;;;;0.40;0.32;;;;;;;32.16;27.13;100751.66;5161188;28;20038;-86
2023/06/12 14:15:13;;;;;;;0.40;0.38;;;;;;;32.14;27.31;100751.00;5151806;28;20089;-84
2023/06/12 14:18:04;;;;;;;0.57;0.57;;;;;;;32.15;27.06;100756.25;5135009;28;20062;-87
2023/06/12 14:20:56;;;;;;;0.47;0.47;;;;;;;32.45;28.29;100752.78;5152166;28;20089;-86
2023/06/12 14:23:47;;;;;;;0.35;0.35;;;;;;;32.46;28.12;100747.19;5142502;28;20076;-87
2023/06/12 14:26:38;;;;;;;1.25;1.15;;;;;;;32.55;27.69;100750.63;5150923;28;20042;-85
2023/06/12 14:29:29;;;;;;;0.70;0.70;;;;;;;32.72;27.12;100739.59;5147722;28;20054;-84
2023/06/12 14:32:20;;;;;;;0.93;0.85;;;;;;;32.82;27.12;100740.19;5147547;28;20023;-84
2023/06/12 14:35:12;;;;;;;0.47;0.47;;;;;;;32.94;27.58;100730.50;5156394;28;20030;-84
2023/06/12 14:38:03;;;;;;;;;;;;;;;33.09;27.51;100740.53;5156999;28;20038;-86
2023/06/12 14:40:54;;;;;;;0.65;0.65;;;;;;;32.62;24.69;100732.56;5154196;28;19960;-85
2023/06/12 14:43:45;;;;;;;0.63;0.55;;;;;;;32.99;26.98;100729.94;5130459;28;20710;-86
2023/06/12 14:46:35;;;;;;;0.20;0.20;;;;;;;33.27;25.55;100724.63;5149856;28;20029;-85
2023/06/12 14:49:26;;;;;;;0.43;0.43;;;;;;;33.60;26.80;100723.34;5169385;28;20056;-87
2023/06/12 14:52:17;;;;;;;0.82;0.80;;;;;;;33.79;26.01;100719.13;5155043;28;20039;-87
2023/06/12 14:55:08;;;;;;;8.02;1.55;;;;;;;34.01;25.21;100713.69;5158025;28;20109;-88
2023/06/12 14:57:59;;;;;;;0.40;0.40;;;;;;;34.39;26.83;100715.25;5152893;28;20494;-88
2023/06/12 15:00:50;;;;;;;0.57;0.57;;;;;;;34.66;25.50;100705.38;5154305;28;20177;-88
2023/06/12 15:03:41;;;;;;;0.30;0.30;;;;;;;34.91;24.59;100713.06;5135155;28;20061;-88
2023/06/12 15:06:32;;;;;;;0.55;0.55;;;;;;;35.06;24.69;100711.03;5144419;28;20042;-87
2023/06/12 15:09:23;;;;;;;2.00;1.50;;;;;;;34.98;24.21;100714.78;5148606;28;20629;-86
2023/06/12 15:12:14;;;;;;;1.20;1.00;;;;;;;35.27;24.26;100717.38;5135507;28;20073;-90
2023/06/12 15:15:05;;;;;;;0.52;0.52;;;;;;;35.23;22.88;100713.41;5153737;28;20038;-90
2023/06/12 15:17:56;;;;;;;1.38;0.90;;;;;;;34.82;22.54;100710.50;5154752;28;20026;-90
2023/06/12 15:20:47;;;;;;;0.63;0.63;;;;;;;34.96;23.30;100699.66;5158064;28;20044;-90
2023/06/12 15:23:37;;;;;;;0.77;0.77;;;;;;;34.63;23.15;100701.16;5149081;28;20041;-85
2023/06/12 15:26:28;;;;;;;0.52;0.52;;;;;;;34.78;22.68;100703.75;5157008;28;20026;-86
2023/06/12 15:29:19;;;;;;;0.28;0.28;;;;;;;34.80;24.48;100706.25;5166812;28;20026;-88
2023/06/12 15:32:10;;;;;;;1.00;1.00;;;;;;;34.36;24.33;100717.31;5154359;28;20616;-88
2023/06/12 15:35:04;;;;;;;0.30;0.30;;;;;;;34.10;23.84;100701.63;5157556;28;20058;-87